Time;durP1;ratioP1;P1;durP2;ratioP2;P2;SDS_P1;SDS_P2;PMS_P1;PMS_P2;Temp;Humidity;BMP_temperature;BMP_pressure;BME280_temperature;BME280_humidity;BME280_pressure;Samples;Min_cycle;Max_cycle;Signal;HPM_P1;HPM_P2
2021/07/25 00:00:58;;;;;;;10.43;6.80;;;;;;;24.32;48.37;95099.56;5029094;28;20044;-71
2021/07/25 00:03:23;;;;;;;10.10;7.20;;;;;;;24.31;49.01;95102.81;5028922;28;20041;-71
2021/07/25 00:05:49;;;;;;;8.63;6.32;;;;;;;24.27;48.79;95103.06;5027656;28;20041;-71
2021/07/25 00:08:14;;;;;;;11.05;7.22;;;;;;;24.26;48.86;95101.63;5029198;28;20091;-71
2021/07/25 00:10:43;;;;;;;8.80;6.50;;;;;;;24.26;48.89;95106.31;5028886;28;20029;-72
2021/07/25 00:13:09;;;;;;;9.17;6.40;;;;;;;24.24;48.82;95101.38;5029087;28;20412;-71
2021/07/25 00:15:34;;;;;;;10.18;7.20;;;;;;;24.24;48.67;95103.38;5029051;28;20280;-71
2021/07/25 00:18:00;;;;;;;9.05;6.68;;;;;;;24.20;49.15;95098.22;5028760;28;20028;-71
2021/07/25 00:20:25;;;;;;;9.52;6.40;;;;;;;24.17;49.36;95109.41;5027750;28;20025;-71
2021/07/25 00:22:51;;;;;;;8.63;6.47;;;;;;;24.17;49.02;95107.41;5028910;28;20025;-72
2021/07/25 00:25:19;;;;;;;8.23;6.43;;;;;;;24.17;49.11;95110.16;5029246;28;20041;-72
2021/07/25 00:27:46;;;;;;;8.88;6.18;;;;;;;24.13;49.32;95109.69;5028886;28;20372;-72
2021/07/25 00:30:12;;;;;;;10.20;7.50;;;;;;;24.09;49.30;95109.22;5029418;28;20411;-71
2021/07/25 00:32:38;;;;;;;10.85;7.40;;;;;;;24.10;49.54;95116.16;5028048;28;20021;-71
2021/07/25 00:35:04;;;;;;;12.43;6.90;;;;;;;24.07;49.57;95117.19;5027266;28;20037;-71
2021/07/25 00:37:29;;;;;;;9.52;7.03;;;;;;;24.03;48.99;95111.25;5028559;28;20060;-71
2021/07/25 00:39:55;;;;;;;8.57;6.43;;;;;;;24.02;49.38;95109.81;5040268;28;20741;-71
2021/07/25 00:42:20;;;;;;;9.32;6.75;;;;;;;24.00;49.71;95112.28;5041078;28;20080;-71
2021/07/25 00:44:46;;;;;;;9.45;7.05;;;;;;;24.00;49.29;95117.75;5048298;28;20027;-72
2021/07/25 00:47:11;;;;;;;9.23;7.07;;;;;;;23.96;49.55;95106.38;5048277;28;20424;-71
2021/07/25 00:49:36;;;;;;;9.32;6.72;;;;;;;23.94;49.50;95103.41;5048033;28;20491;-73
2021/07/25 00:52:04;;;;;;;8.70;6.53;;;;;;;23.93;49.66;95101.94;5048194;28;20025;-71
2021/07/25 00:54:30;;;;;;;11.80;6.88;;;;;;;23.94;49.48;95114.31;5048362;28;20040;-71
2021/07/25 00:56:55;;;;;;;8.25;6.43;;;;;;;23.87;49.78;95098.53;5030329;28;20037;-72
2021/07/25 00:59:21;;;;;;;9.50;6.75;;;;;;;23.87;49.68;95097.81;5047837;28;20021;-71
2021/07/25 01:01:48;;;;;;;9.45;6.78;;;;;;;23.56;49.31;95056.66;5048276;28;20062;-72
2021/07/25 01:04:33;;;;;;;10.30;6.85;;;;;;;22.86;48.91;94957.19;5046768;28;20563;-71
2021/07/25 01:07:01;;;;;;;9.98;6.47;;;;;;;23.84;49.31;95098.06;5046487;28;20091;-71
2021/07/25 01:09:37;;;;;;;9.85;6.38;;;;;;;23.79;48.88;95096.16;5047696;28;20024;-73
2021/07/25 01:12:06;;;;;;;8.80;6.50;;;;;;;23.81;49.27;95094.41;5046690;28;20032;-71
2021/07/25 01:14:35;;;;;;;9.93;6.15;;;;;;;23.66;49.43;95076.91;5046550;28;20021;-71
2021/07/25 01:17:32;;;;;;;7.78;6.32;;;;;;;23.77;49.71;95090.47;5046037;28;20111;-72
2021/07/25 01:20:10;;;;;;;9.35;6.38;;;;;;;23.74;49.30;95083.31;5047721;28;20029;-70
2021/07/25 01:22:41;;;;;;;9.32;6.25;;;;;;;23.70;49.53;95085.56;5047786;28;20039;-72
2021/07/25 01:25:08;;;;;;;8.80;6.75;;;;;;;23.31;49.51;95030.59;5047907;28;20040;-73
2021/07/25 01:27:52;;;;;;;9.45;6.55;;;;;;;23.67;49.76;95084.59;5046189;28;20786;-73
2021/07/25 01:30:24;;;;;;;8.45;6.63;;;;;;;23.66;49.87;95077.66;5047415;28;20036;-71
2021/07/25 01:32:51;;;;;;;9.05;6.55;;;;;;;23.64;49.39;95079.41;5047430;28;20118;-72
2021/07/25 01:35:16;;;;;;;8.02;6.30;;;;;;;23.64;49.45;95084.88;5029839;28;20035;-72
2021/07/25 01:37:42;;;;;;;8.32;6.60;;;;;;;23.61;49.52;95080.41;5045841;28;20028;-72
2021/07/25 01:40:26;;;;;;;8.27;6.32;;;;;;;23.62;49.70;95090.06;5047172;28;20033;-71
2021/07/25 01:42:52;;;;;;;10.77;7.15;;;;;;;23.60;49.78;95081.66;5045957;28;20043;-72
2021/07/25 01:45:18;;;;;;;9.32;6.28;;;;;;;22.85;49.79;94989.09;5047190;28;20099;-72
2021/07/25 01:47:43;;;;;;;8.32;6.28;;;;;;;23.60;49.73;95089.81;5029204;28;20115;-71
2021/07/25 01:50:09;;;;;;;8.35;6.13;;;;;;;23.60;49.47;95090.59;5047172;28;20032;-72
2021/07/25 01:52:35;;;;;;;7.38;5.75;;;;;;;23.57;49.17;95090.84;5047067;28;20040;-72
2021/07/25 01:55:01;;;;;;;8.05;6.15;;;;;;;23.55;49.23;95093.34;5045888;28;20049;-72
2021/07/25 01:57:26;;;;;;;8.05;6.15;;;;;;;22.84;49.21;94981.44;5046611;28;20753;-72
2021/07/25 01:59:52;;;;;;;8.75;6.50;;;;;;;23.47;49.54;95089.69;5045698;28;20020;-72
2021/07/25 02:02:17;;;;;;;8.05;6.25;;;;;;;23.47;49.33;95089.69;5046898;28;20025;-71
2021/07/25 02:04:42;;;;;;;7.72;6.32;;;;;;;23.46;49.49;95096.38;5046991;28;20484;-72
2021/07/25 02:07:08;;;;;;;7.22;5.78;;;;;;;23.45;49.38;95094.91;5046590;28;20032;-71
2021/07/25 02:09:34;;;;;;;8.45;6.00;;;;;;;23.41;49.35;95094.47;5046091;28;20392;-71
2021/07/25 02:12:00;;;;;;;8.63;6.07;;;;;;;23.40;49.10;95104.59;5046466;28;20870;-70
2021/07/25 02:14:26;;;;;;;10.48;5.82;;;;;;;23.37;49.52;95110.34;5046575;28;20021;-73
2021/07/25 02:16:51;;;;;;;9.32;6.00;;;;;;;23.35;49.75;95112.84;5046520;28;20029;-72
2021/07/25 02:19:17;;;;;;;8.32;5.85;;;;;;;23.31;49.79;95112.34;5046352;28;20158;-71
2021/07/25 02:21:42;;;;;;;8.57;6.20;;;;;;;22.20;49.30;94956.84;5046738;28;20029;-71
2021/07/25 02:24:08;;;;;;;7.32;5.90;;;;;;;23.32;49.32;95102.94;5044772;28;20029;-71
2021/07/25 02:26:33;;;;;;;8.20;5.53;;;;;;;23.30;49.38;95099.97;5046417;28;20025;-71
2021/07/25 02:28:59;;;;;;;8.40;5.32;;;;;;;23.29;49.52;95106.69;5045989;28;20029;-71
2021/07/25 02:31:24;;;;;;;7.18;5.53;;;;;;;23.12;49.47;95078.81;5046098;28;20033;-71
2021/07/25 02:33:49;;;;;;;7.28;5.53;;;;;;;23.22;49.49;95099.03;5046341;28;20477;-70
2021/07/25 02:36:15;;;;;;;7.20;5.55;;;;;;;23.20;49.48;95104.28;5046503;28;20082;-72
2021/07/25 02:38:40;;;;;;;6.38;5.10;;;;;;;23.18;49.54;95109.47;5045874;28;20075;-72
2021/07/25 02:41:05;;;;;;;7.50;5.82;;;;;;;23.03;49.72;95098.19;5038982;28;20120;-73
2021/07/25 02:43:31;;;;;;;7.47;5.75;;;;;;;23.11;50.00;95115.47;5025371;28;20040;-71
2021/07/25 02:45:57;;;;;;;7.22;5.05;;;;;;;23.11;49.59;95098.41;5026134;28;20029;-72
2021/07/25 02:48:23;;;;;;;8.43;5.70;;;;;;;23.09;49.86;95107.06;5025613;28;20428;-71
2021/07/25 02:50:48;;;;;;;8.95;5.60;;;;;;;23.09;49.64;95101.63;5026025;28;20069;-71
2021/07/25 02:53:14;;;;;;;7.50;6.32;;;;;;;23.05;50.08;95101.16;5026203;28;20036;-71
2021/07/25 02:55:39;;;;;;;6.93;5.50;;;;;;;23.01;50.02;95100.66;5025943;28;20053;-71
2021/07/25 02:58:05;;;;;;;8.40;6.30;;;;;;;22.35;49.58;94990.66;5025573;28;20025;-71
2021/07/25 03:00:30;;;;;;;6.60;5.72;;;;;;;23.01;49.84;95106.09;5025934;28;20056;-71
2021/07/25 03:02:56;;;;;;;7.78;5.82;;;;;;;22.67;49.63;95057.03;5024651;28;20361;-71
2021/07/25 03:05:22;;;;;;;8.18;5.85;;;;;;;23.00;49.72;95110.09;5025399;28;20037;-72
2021/07/25 03:07:48;;;;;;;9.45;6.22;;;;;;;22.96;49.98;95120.50;5025279;28;20040;-71
2021/07/25 03:10:13;;;;;;;7.57;5.95;;;;;;;22.95;50.11;95119.00;5026082;28;20030;-71
2021/07/25 03:12:39;;;;;;;7.53;5.72;;;;;;;22.91;49.87;95118.53;5026297;28;20181;-71
2021/07/25 03:15:05;;;;;;;7.53;5.75;;;;;;;22.43;49.85;95041.31;5026516;28;20017;-71
2021/07/25 03:17:30;;;;;;;8.25;6.30;;;;;;;22.81;50.27;95107.69;5026404;28;20025;-71
2021/07/25 03:19:56;;;;;;;6.80;5.90;;;;;;;22.89;50.17;95126.44;5026400;28;20241;-72
2021/07/25 03:22:22;;;;;;;8.07;6.07;;;;;;;22.88;50.28;95134.38;5024989;28;20120;-71
2021/07/25 03:24:48;;;;;;;7.53;5.60;;;;;;;22.88;50.45;95135.88;5024986;28;20529;-71
2021/07/25 03:27:13;;;;;;;7.70;5.85;;;;;;;22.80;50.34;95125.28;5026216;28;20030;-71
2021/07/25 03:29:38;;;;;;;7.82;6.10;;;;;;;22.88;50.38;95141.31;5026156;28;20026;-71
2021/07/25 03:32:04;;;;;;;8.30;6.20;;;;;;;22.88;50.13;95139.84;5026078;28;20025;-71
2021/07/25 03:34:32;;;;;;;8.77;5.70;;;;;;;22.87;50.70;95143.78;5026256;28;20086;-71
2021/07/25 03:36:59;;;;;;;9.88;5.97;;;;;;;22.88;50.65;95145.28;5026102;28;20032;-71
2021/07/25 03:39:24;;;;;;;8.68;6.18;;;;;;;22.89;50.61;95153.69;5026234;28;20036;-72
2021/07/25 03:41:50;;;;;;;8.82;6.28;;;;;;;22.88;50.63;95161.63;5008506;28;20029;-72
2021/07/25 03:44:16;;;;;;;7.97;6.40;;;;;;;22.88;50.65;95161.63;5026527;28;20493;-71
2021/07/25 03:46:41;;;;;;;8.85;6.55;;;;;;;22.89;50.63;95164.56;5026050;28;20043;-71
2021/07/25 03:49:07;;;;;;;12.30;7.00;;;;;;;22.88;50.80;95161.63;5026440;28;20065;-72
2021/07/25 03:51:33;;;;;;;12.85;7.15;;;;;;;22.28;50.80;95067.34;5026574;28;20549;-71
2021/07/25 03:53:58;;;;;;;10.27;6.80;;;;;;;22.87;50.97;95165.56;5024571;28;20029;-71
2021/07/25 03:56:24;;;;;;;9.23;6.70;;;;;;;22.88;50.68;95163.09;5026001;28;20038;-70
2021/07/25 03:58:49;;;;;;;9.45;7.00;;;;;;;22.87;50.79;95165.56;5025677;28;20017;-71
2021/07/25 04:01:14;;;;;;;9.02;6.85;;;;;;;22.55;50.61;95120.91;5025002;28;20022;-71
2021/07/25 04:03:40;;;;;;;10.10;6.88;;;;;;;22.84;51.16;95172.03;5025914;28;20052;-72
2021/07/25 04:06:05;;;;;;;10.13;6.50;;;;;;;22.87;51.04;95171.03;5026117;28;20029;-72
2021/07/25 04:08:31;;;;;;;11.07;6.88;;;;;;;22.89;50.98;95174.72;5026110;28;20029;-72
2021/07/25 04:10:56;;;;;;;9.65;6.53;;;;;;;22.89;50.59;95175.47;5026220;28;20022;-72
2021/07/25 04:13:22;;;;;;;8.38;6.63;;;;;;;22.86;50.42;95164.13;5025715;28;20026;-70
2021/07/25 04:15:47;;;;;;;12.20;6.53;;;;;;;22.90;50.70;95182.41;5025901;28;20025;-71
2021/07/25 04:18:14;;;;;;;9.07;6.55;;;;;;;22.88;50.56;95174.00;5028359;28;20109;-71
2021/07/25 04:20:39;;;;;;;11.27;7.07;;;;;;;22.91;50.22;95183.88;5028119;28;20029;-72
2021/07/25 04:23:05;;;;;;;9.18;6.82;;;;;;;22.91;50.45;95183.88;5029481;28;20067;-72
2021/07/25 04:25:30;;;;;;;8.77;6.38;;;;;;;22.91;50.35;95183.88;5029549;28;20075;-72
2021/07/25 04:27:59;;;;;;;9.23;6.93;;;;;;;22.91;50.52;95183.88;5029344;28;20039;-72
2021/07/25 04:30:26;;;;;;;8.68;6.43;;;;;;;22.93;50.60;95191.56;5029428;28;20025;-71
2021/07/25 04:32:52;;;;;;;10.05;6.78;;;;;;;22.94;50.35;95193.81;5029248;28;20052;-71
2021/07/25 04:35:18;;;;;;;8.05;6.07;;;;;;;22.95;50.62;95189.81;5029466;28;20033;-72
2021/07/25 04:37:53;;;;;;;8.38;5.90;;;;;;;22.99;50.78;95190.31;5029347;28;20036;-72
2021/07/25 04:40:19;;;;;;;8.00;6.07;;;;;;;22.98;50.41;95188.81;5029278;28;20029;-72
2021/07/25 04:42:46;;;;;;;8.68;6.30;;;;;;;23.00;50.45;95183.63;5028150;28;20032;-72
2021/07/25 04:45:12;;;;;;;8.75;6.80;;;;;;;22.97;50.42;95181.91;5029297;28;20124;-72
2021/07/25 04:47:40;;;;;;;9.23;6.57;;;;;;;23.01;50.29;95181.63;5011140;28;20108;-71
2021/07/25 04:50:13;;;;;;;9.07;6.70;;;;;;;23.02;50.25;95183.13;5029054;28;20110;-72
2021/07/25 04:52:40;;;;;;;13.25;7.45;;;;;;;23.04;50.11;95186.81;5027721;28;20571;-72
2021/07/25 04:55:09;;;;;;;10.02;6.55;;;;;;;23.07;50.43;95185.81;5028947;28;20053;-75
2021/07/25 04:57:41;;;;;;;8.27;6.53;;;;;;;22.98;50.62;95172.47;5028923;28;20584;-76
2021/07/25 05:00:13;;;;;;;10.52;6.65;;;;;;;23.16;50.33;95188.25;5028540;28;20128;-75
2021/07/25 05:02:39;;;;;;;7.63;6.13;;;;;;;23.18;50.65;95202.09;5029625;28;20037;-78
2021/07/25 05:05:06;;;;;;;10.43;6.63;;;;;;;23.19;50.27;95192.69;5029380;28;20025;-81
2021/07/25 05:07:39;;;;;;;9.05;6.65;;;;;;;23.24;50.04;95194.63;5029765;28;20025;-80
2021/07/25 05:10:05;;;;;;;8.70;6.78;;;;;;;23.32;49.88;95190.16;5029254;28;20525;-75
2021/07/25 05:12:53;;;;;;;9.88;7.43;;;;;;;23.32;50.10;95190.16;5029355;28;20403;-81
2021/07/25 05:15:25;;;;;;;10.05;7.10;;;;;;;22.31;50.08;95039.13;5028523;28;20025;-72
2021/07/25 05:17:51;;;;;;;12.00;6.50;;;;;;;23.35;50.29;95193.81;5013131;28;20051;-75
2021/07/25 05:20:17;;;;;;;13.05;7.65;;;;;;;23.38;50.13;95199.03;5027944;28;20030;-73
2021/07/25 05:22:51;;;;;;;9.10;6.95;;;;;;;23.44;50.46;95191.56;5029253;28;20389;-73
2021/07/25 05:25:17;;;;;;;9.90;7.32;;;;;;;23.47;50.14;95201.44;5028170;28;20293;-74
2021/07/25 05:27:45;;;;;;;8.10;6.32;;;;;;;23.28;50.10;95167.88;5029101;28;20623;-76
2021/07/25 05:30:12;;;;;;;9.32;6.40;;;;;;;23.51;50.37;95202.66;5028994;28;20021;-76
2021/07/25 05:32:37;;;;;;;9.50;6.93;;;;;;;23.62;50.05;95201.84;5029422;28;20030;-73
2021/07/25 05:35:03;;;;;;;9.73;6.22;;;;;;;23.63;49.74;95200.59;5035993;28;20033;-72
2021/07/25 05:37:29;;;;;;;14.38;6.78;;;;;;;23.58;50.00;95195.91;5048775;28;20032;-71
2021/07/25 05:39:54;;;;;;;9.63;6.45;;;;;;;23.69;49.86;95212.22;5044043;28;20039;-73
2021/07/25 05:42:20;;;;;;;10.18;7.13;;;;;;;23.71;49.82;95209.75;5048388;28;20359;-72
2021/07/25 05:44:45;;;;;;;9.68;7.00;;;;;;;23.71;50.00;95207.75;5048716;28;20028;-72
2021/07/25 05:47:11;;;;;;;10.15;6.63;;;;;;;23.76;49.33;95206.25;5049186;28;20037;-72
2021/07/25 05:49:36;;;;;;;13.35;7.20;;;;;;;23.75;49.45;95204.75;5049144;28;20546;-72
2021/07/25 05:52:01;;;;;;;9.55;6.82;;;;;;;23.80;49.81;95212.16;5043870;28;20036;-72
2021/07/25 05:54:27;;;;;;;8.75;6.70;;;;;;;23.85;49.63;95214.84;5045396;28;20111;-71
2021/07/25 05:56:52;;;;;;;10.00;6.70;;;;;;;23.83;49.80;95205.69;5048307;28;20028;-73
2021/07/25 05:59:18;;;;;;;7.82;6.50;;;;;;;23.93;49.63;95216.53;5048107;28;20028;-70
2021/07/25 06:01:44;;;;;;;9.25;6.70;;;;;;;24.01;49.26;95211.97;5048430;28;20028;-72
2021/07/25 06:04:10;;;;;;;8.98;7.60;;;;;;;24.09;48.84;95217.63;5036236;28;20029;-72
2021/07/25 06:06:35;;;;;;;10.15;7.10;;;;;;;24.17;48.91;95219.31;5045359;28;20409;-74
2021/07/25 06:09:03;;;;;;;9.82;6.72;;;;;;;24.21;48.51;95214.28;5047876;28;20071;-73
2021/07/25 06:11:28;;;;;;;9.48;6.80;;;;;;;24.30;48.97;95221.41;5046847;28;20024;-74
2021/07/25 06:13:54;;;;;;;13.07;7.00;;;;;;;24.36;48.26;95225.59;5036667;28;20090;-72
2021/07/25 06:16:20;;;;;;;8.52;6.65;;;;;;;24.51;48.38;95228.69;5037149;28;20036;-75
2021/07/25 06:18:47;;;;;;;8.70;6.97;;;;;;;24.60;47.84;95225.59;5028713;28;20026;-73
2021/07/25 06:21:16;;;;;;;9.13;6.43;;;;;;;24.73;48.05;95236.66;5028071;28;20029;-71
2021/07/25 06:23:41;;;;;;;11.48;6.80;;;;;;;24.81;47.98;95232.09;5028276;28;20389;-73
2021/07/25 06:26:07;;;;;;;8.50;6.50;;;;;;;24.89;47.50;95229.00;5027387;28;20079;-72
2021/07/25 06:28:32;;;;;;;10.27;6.80;;;;;;;25.05;47.35;95230.09;5029458;28;20029;-72
2021/07/25 06:30:58;;;;;;;9.63;6.53;;;;;;;25.15;47.07;95234.69;5028926;28;20033;-71
2021/07/25 06:33:28;;;;;;;11.15;7.05;;;;;;;25.05;46.74;95192.59;5028203;28;20385;-74
2021/07/25 06:35:54;;;;;;;11.25;7.55;;;;;;;25.49;45.86;95230.28;5028558;28;20037;-72
2021/07/25 06:38:19;;;;;;;9.57;6.97;;;;;;;25.30;45.48;95183.06;5026831;28;20029;-70
2021/07/25 06:40:49;;;;;;;10.38;7.18;;;;;;;25.70;45.60;95223.06;5027545;28;20393;-71
2021/07/25 06:43:15;;;;;;;9.05;6.70;;;;;;;25.81;45.02;95227.13;5010707;28;20029;-71
2021/07/25 06:45:40;;;;;;;9.27;6.70;;;;;;;26.01;44.73;95226.56;5027347;28;20079;-70
2021/07/25 06:48:18;;;;;;;8.40;6.55;;;;;;;26.13;44.45;95236.06;5027331;28;20030;-69
2021/07/25 06:50:45;;;;;;;9.57;6.38;;;;;;;26.31;44.16;95224.34;5028133;28;20032;-70
2021/07/25 06:53:11;;;;;;;9.68;6.95;;;;;;;26.38;44.17;95231.94;5026281;28;20558;-71
2021/07/25 06:55:36;;;;;;;9.25;6.68;;;;;;;26.34;44.50;95221.28;5027552;28;20042;-69
2021/07/25 06:58:02;;;;;;;9.82;6.57;;;;;;;26.50;43.70;95223.03;5026898;28;20025;-71
2021/07/25 07:00:27;;;;;;;8.80;6.97;;;;;;;26.58;43.90;95217.66;5027785;28;20032;-71
2021/07/25 07:02:54;;;;;;;10.32;6.28;;;;;;;26.68;43.57;95224.19;5028055;28;20048;-71
2021/07/25 07:05:24;;;;;;;8.68;6.05;;;;;;;26.79;43.19;95217.25;5009762;28;20455;-70
2021/07/25 07:07:51;;;;;;;9.52;6.28;;;;;;;26.92;42.83;95225.50;5042594;28;20036;-76
2021/07/25 07:10:18;;;;;;;9.30;6.57;;;;;;;26.90;42.23;95206.09;5044532;28;20029;-72
2021/07/25 07:12:44;;;;;;;9.60;6.40;;;;;;;27.05;42.08;95222.75;5047154;28;20080;-70
2021/07/25 07:15:10;;;;;;;8.65;5.97;;;;;;;27.03;42.06;95214.31;5040684;28;20523;-71
2021/07/25 07:17:37;;;;;;;9.80;6.60;;;;;;;27.13;42.11;95223.59;5038401;28;20147;-70
2021/07/25 07:20:04;;;;;;;9.73;6.00;;;;;;;27.13;42.10;95206.38;5034501;28;20040;-72
2021/07/25 07:22:30;;;;;;;9.27;6.65;;;;;;;27.20;42.17;95211.97;5031874;28;20492;-69
2021/07/25 07:24:56;;;;;;;8.10;5.93;;;;;;;27.18;42.10;95213.78;5026510;28;20028;-71
2021/07/25 07:27:22;;;;;;;10.27;6.82;;;;;;;27.18;42.57;95214.50;5027001;28;20492;-69
2021/07/25 07:29:47;;;;;;;11.55;7.82;;;;;;;27.25;42.47;95208.38;5026866;28;20113;-68
2021/07/25 07:32:13;;;;;;;8.85;6.28;;;;;;;27.35;42.15;95206.66;5026964;28;20021;-69
2021/07/25 07:34:38;;;;;;;9.70;6.50;;;;;;;27.31;42.19;95206.28;5033411;28;20423;-69
2021/07/25 07:37:04;;;;;;;13.07;7.82;;;;;;;27.35;41.89;95207.41;5046653;28;20435;-70
2021/07/25 07:39:30;;;;;;;10.02;6.47;;;;;;;27.47;41.73;95207.91;5046649;28;20025;-71
2021/07/25 07:41:55;;;;;;;10.13;7.00;;;;;;;27.54;41.70;95212.78;5046340;28;20036;-72
2021/07/25 07:44:21;;;;;;;9.55;6.63;;;;;;;27.63;41.63;95209.59;5045243;28;20526;-72
2021/07/25 07:46:46;;;;;;;9.13;6.60;;;;;;;27.73;41.41;95207.84;5047073;28;20021;-70
2021/07/25 07:49:12;;;;;;;8.55;6.10;;;;;;;27.78;40.97;95211.22;5045308;28;20029;-69
2021/07/25 07:51:37;;;;;;;9.35;7.03;;;;;;;27.86;40.98;95206.56;5042707;28;20044;-70
2021/07/25 07:54:03;;;;;;;11.32;6.60;;;;;;;27.74;41.02;95183.38;5038600;28;20538;-71
2021/07/25 07:56:31;;;;;;;12.73;6.43;;;;;;;27.72;40.84;95218.09;5039759;28;20045;-70
2021/07/25 07:58:56;;;;;;;10.75;7.13;;;;;;;27.75;40.71;95184.81;5038283;28;20084;-71
2021/07/25 08:01:22;;;;;;;10.35;6.43;;;;;;;27.99;40.78;95214.72;5038821;28;20020;-69
2021/07/25 08:03:47;;;;;;;9.43;6.85;;;;;;;27.49;40.90;95156.72;5038255;28;20035;-68
2021/07/25 08:06:12;;;;;;;11.10;6.53;;;;;;;28.02;40.96;95213.63;5045458;28;20480;-75
2021/07/25 08:08:38;;;;;;;11.67;8.00;;;;;;;28.01;40.78;95217.69;5041645;28;20424;-68
2021/07/25 08:11:03;;;;;;;12.13;7.40;;;;;;;28.11;40.65;95215.22;5032739;28;20064;-69
2021/07/25 08:13:29;;;;;;;10.35;6.25;;;;;;;28.20;40.24;95190.75;5050699;28;20830;-70
2021/07/25 08:15:54;;;;;;;9.35;6.50;;;;;;;28.44;40.03;95209.66;5048736;28;20468;-70
2021/07/25 08:18:20;;;;;;;10.10;6.72;;;;;;;28.48;40.35;95210.06;5047700;28;20487;-70
2021/07/25 08:20:45;;;;;;;9.20;6.13;;;;;;;28.53;40.15;95206.41;5048206;28;20066;-70
2021/07/25 08:23:11;;;;;;;8.27;5.85;;;;;;;28.64;39.59;95206.13;5048342;28;20029;-71
2021/07/25 08:25:36;;;;;;;8.52;6.43;;;;;;;28.69;39.56;95208.75;5036257;28;20029;-72
2021/07/25 08:28:02;;;;;;;9.57;6.45;;;;;;;28.74;39.12;95208.63;5043499;28;20028;-71
2021/07/25 08:30:29;;;;;;;7.78;6.28;;;;;;;28.79;38.55;95202.22;5039723;28;20746;-70
2021/07/25 08:32:55;;;;;;;8.73;6.75;;;;;;;28.83;38.64;95205.38;5043524;28;20048;-71
2021/07/25 08:35:20;;;;;;;8.38;5.95;;;;;;;28.86;38.63;95206.31;5039491;28;20488;-70
2021/07/25 08:37:46;;;;;;;9.43;6.03;;;;;;;28.90;38.36;95207.44;5044464;28;20063;-70
2021/07/25 08:40:13;;;;;;;7.80;6.18;;;;;;;28.94;38.85;95202.31;5038343;28;20102;-70
2021/07/25 08:42:44;;;;;;;8.07;6.07;;;;;;;29.02;38.09;95203.09;5045092;28;20120;-72
2021/07/25 08:45:10;;;;;;;7.40;5.70;;;;;;;28.93;38.66;95200.84;5045985;28;20029;-70
2021/07/25 08:47:39;;;;;;;9.25;6.03;;;;;;;28.90;38.36;95196.44;5044484;28;20546;-73
2021/07/25 08:50:14;;;;;;;8.65;5.63;;;;;;;28.87;38.98;95189.25;5047100;28;20029;-71
2021/07/25 08:52:42;;;;;;;7.90;5.68;;;;;;;28.79;38.86;95191.25;5045067;28;20082;-69
2021/07/25 08:55:13;;;;;;;6.32;5.38;;;;;;;28.94;37.83;95191.31;5046890;28;20698;-70
2021/07/25 08:57:41;;;;;;;7.28;5.30;;;;;;;29.05;37.46;95182.75;5047483;28;20120;-69
2021/07/25 09:00:08;;;;;;;6.95;5.70;;;;;;;28.98;38.09;95175.19;5047420;28;20040;-71
2021/07/25 09:02:33;;;;;;;6.38;4.90;;;;;;;29.04;37.69;95184.03;5047187;28;20630;-72
2021/07/25 09:04:59;;;;;;;6.93;5.30;;;;;;;28.98;38.71;95183.44;5046155;28;20032;-72
2021/07/25 09:07:31;;;;;;;7.10;4.65;;;;;;;28.90;38.72;95185.44;5047499;28;20484;-72
2021/07/25 09:09:58;;;;;;;7.68;5.00;;;;;;;28.92;38.56;95177.38;5047353;28;20036;-71
2021/07/25 09:12:25;;;;;;;7.85;4.50;;;;;;;29.02;36.43;95174.88;5046479;28;20035;-70
2021/07/25 09:15:02;;;;;;;8.55;4.90;;;;;;;29.08;36.79;95173.41;5046976;28;20047;-71
2021/07/25 09:17:27;;;;;;;4.55;3.88;;;;;;;29.13;36.84;95169.78;5046763;28;20543;-69
2021/07/25 09:20:22;;;;;;;5.10;3.97;;;;;;;29.01;37.65;95168.59;5045782;28;20090;-71
2021/07/25 09:22:47;;;;;;;6.22;4.32;;;;;;;28.90;38.16;95176.44;5047059;28;20032;-70
2021/07/25 09:25:14;;;;;;;7.25;4.25;;;;;;;28.83;37.89;95169.66;5046767;28;20419;-72
2021/07/25 09:27:39;;;;;;;5.85;4.35;;;;;;;28.78;38.12;95162.25;5045189;28;20029;-71
2021/07/25 09:30:20;;;;;;;6.95;4.53;;;;;;;28.79;37.81;95158.25;5039544;28;20075;-72
2021/07/25 09:32:46;;;;;;;5.75;3.72;;;;;;;28.78;37.92;95165.00;5046613;28;20074;-69
2021/07/25 09:35:29;;;;;;;6.70;4.35;;;;;;;28.87;37.08;95170.00;5046842;28;20021;-70
2021/07/25 09:38:13;;;;;;;5.97;4.13;;;;;;;28.95;37.16;95165.31;5046626;28;20029;-69
2021/07/25 09:40:41;;;;;;;4.13;3.53;;;;;;;28.90;37.45;95163.44;5046310;28;20033;-71
2021/07/25 09:43:14;;;;;;;5.22;3.80;;;;;;;28.85;37.49;95160.84;5036841;28;20033;-72
2021/07/25 09:45:53;;;;;;;5.20;3.88;;;;;;;28.91;36.81;95159.41;5046951;28;20043;-71
2021/07/25 09:48:22;;;;;;;;;;;;;;;28.92;37.32;95155.41;5032747;28;20466;-71
2021/07/25 09:50:48;;;;;;;5.40;3.87;;;;;;;29.11;36.35;95150.34;5046927;28;19909;-69
2021/07/25 09:53:14;;;;;;;5.55;4.13;;;;;;;29.10;36.76;95159.84;5046745;28;20089;-69
2021/07/25 09:55:39;;;;;;;4.95;3.85;;;;;;;29.00;36.38;95147.91;5027881;28;20053;-69
2021/07/25 09:58:05;;;;;;;5.55;3.75;;;;;;;29.01;36.64;95157.59;5046007;28;20496;-69
2021/07/25 10:00:41;;;;;;;4.53;3.80;;;;;;;29.02;36.96;95148.09;5046489;28;20507;-69
2021/07/25 10:03:33;;;;;;;4.47;3.67;;;;;;;29.06;36.54;95150.47;5043508;28;20079;-70
2021/07/25 10:06:23;;;;;;;5.15;3.65;;;;;;;29.10;36.43;95154.34;5043936;28;20041;-70
2021/07/25 10:09:11;;;;;;;5.35;4.05;;;;;;;29.10;36.06;95153.63;5045991;28;20075;-69
2021/07/25 10:11:38;;;;;;;4.82;3.55;;;;;;;29.03;35.81;95144.06;5045603;28;20021;-68
2021/07/25 10:14:04;;;;;;;4.45;3.50;;;;;;;28.96;36.34;95124.78;5046319;28;20043;-68
2021/07/25 10:16:29;;;;;;;5.10;3.42;;;;;;;29.09;35.73;95152.13;5044714;28;20408;-65
2021/07/25 10:18:55;;;;;;;5.68;3.40;;;;;;;28.93;35.42;95120.38;5045085;28;20127;-68
2021/07/25 10:21:21;;;;;;;4.70;3.30;;;;;;;29.05;35.02;95124.28;5045897;28;20025;-70
2021/07/25 10:23:55;;;;;;;6.38;3.38;;;;;;;29.25;35.71;95154.44;5044773;28;20021;-69
2021/07/25 10:26:26;;;;;;;4.63;3.33;;;;;;;29.24;35.40;95147.50;5043853;28;20116;-71
2021/07/25 10:28:55;;;;;;;4.97;3.42;;;;;;;29.18;35.90;95130.38;5037717;28;20116;-71
2021/07/25 10:31:24;;;;;;;4.43;3.40;;;;;;;29.29;35.66;95146.56;5041145;28;20028;-71
2021/07/25 10:33:54;;;;;;;5.63;3.30;;;;;;;29.30;35.79;95143.28;5045627;28;20115;-71
2021/07/25 10:36:19;;;;;;;5.32;3.58;;;;;;;29.29;34.97;95130.06;5046365;28;20109;-69
2021/07/25 10:38:48;;;;;;;4.25;3.38;;;;;;;29.29;35.00;95132.81;5036272;28;20060;-69
2021/07/25 10:41:21;;;;;;;3.47;2.70;;;;;;;29.31;34.81;95130.25;5036602;28;20066;-71
2021/07/25 10:43:46;;;;;;;4.97;3.75;;;;;;;29.33;34.39;95133.22;5040444;28;20174;-71
2021/07/25 10:46:19;;;;;;;4.88;3.17;;;;;;;29.37;34.74;95133.56;5021024;28;20052;-70
2021/07/25 10:49:00;;;;;;;4.25;3.25;;;;;;;29.41;34.95;95125.72;5040110;28;20025;-70
2021/07/25 10:51:32;;;;;;;3.90;3.08;;;;;;;29.41;33.89;95109.19;5032658;28;20037;-71
2021/07/25 10:54:19;;;;;;;5.97;3.30;;;;;;;29.39;34.96;95120.03;5014317;28;20029;-71
2021/07/25 10:57:12;;;;;;;5.68;3.10;;;;;;;29.36;35.17;95115.59;5045178;28;20463;-71
2021/07/25 10:59:52;;;;;;;4.00;3.00;;;;;;;29.31;34.84;95119.25;5044986;28;20422;-71
2021/07/25 11:02:26;;;;;;;5.38;3.33;;;;;;;29.31;35.51;95120.00;5045309;28;20094;-73
2021/07/25 11:04:54;;;;;;;4.13;3.05;;;;;;;29.31;35.64;95113.75;5045163;28;20060;-70
2021/07/25 11:07:23;;;;;;;5.75;3.45;;;;;;;29.38;35.63;95115.78;5044803;28;20079;-70
2021/07/25 11:09:58;;;;;;;4.00;3.15;;;;;;;29.37;35.79;95104.06;5044725;28;20083;-71
2021/07/25 11:12:24;;;;;;;5.60;3.30;;;;;;;29.40;35.79;95107.72;5040254;28;20029;-71
2021/07/25 11:14:55;;;;;;;4.55;3.03;;;;;;;29.38;35.98;95102.03;5045038;28;20044;-72
2021/07/25 11:17:45;;;;;;;4.32;2.90;;;;;;;29.39;36.30;95098.00;5042372;28;20055;-71
2021/07/25 11:20:30;;;;;;;5.20;3.03;;;;;;;29.39;36.50;95100.75;5045305;28;20040;-71
2021/07/25 11:22:55;;;;;;;6.32;2.97;;;;;;;29.39;36.50;95098.00;5045164;28;20929;-71
2021/07/25 11:25:29;;;;;;;3.70;2.72;;;;;;;29.39;36.38;95098.00;5043513;28;20071;-71
2021/07/25 11:27:54;;;;;;;5.35;2.97;;;;;;;29.37;36.56;95089.53;5045885;28;20452;-71
2021/07/25 11:30:53;;;;;;;4.85;2.72;;;;;;;29.41;36.98;95100.94;5045853;28;20065;-71
2021/07/25 11:33:45;;;;;;;3.35;2.90;;;;;;;29.44;36.80;95099.84;5013843;28;20037;-71
2021/07/25 11:36:18;;;;;;;3.63;2.75;;;;;;;29.45;36.78;95090.31;5048909;28;20503;-72